Terminal Aerodrome Forecast
Issued by NWS

Home | Current Version | Previous Version | Text Only | Print | Product List | Glossary Off
Versions: 1 2 3 4 5 6 7 8 9 10 11 12 13 14 15 16 17 18 19 20 21 22 23 24

000
FTUS43 KDLH 221124
TAFHYR
TAF
KHYR 221124Z 2212/2312 00000KT P6SM FEW110
     FM221700 14004KT P6SM BKN120
     FM222200 13005KT P6SM VCSH BKN050 BKN110
      TEMPO 2223/2224 5SM -SN BKN030 BKN100
     FM230000 11004KT 4SM -SN BKN030
     FM230200 11005KT 2SM -SN OVC015=

USA.gov is the U.S. government's official web portal to all federal, state and local government web resources and services.